sensor_id;sensor_type;location;lat;lon;timestamp;temperature;humidity
74384;DHT22;62824;52.994;-3.936;2023-05-29T00:00:07;13.00;99.90
74384;DHT22;62824;52.994;-3.936;2023-05-29T00:02:36;12.80;99.90
74384;DHT22;62824;52.994;-3.936;2023-05-29T00:05:02;12.80;99.90
74384;DHT22;62824;52.994;-3.936;2023-05-29T00:07:31;12.80;99.90
74384;DHT22;62824;52.994;-3.936;2023-05-29T00:09:58;12.70;99.90
74384;DHT22;62824;52.994;-3.936;2023-05-29T00:12:24;12.70;99.90
74384;DHT22;62824;52.994;-3.936;2023-05-29T00:14:50;12.50;99.90
74384;DHT22;62824;52.994;-3.936;2023-05-29T00:17:16;12.30;99.90
74384;DHT22;62824;52.994;-3.936;2023-05-29T00:19:43;12.20;99.90
74384;DHT22;62824;52.994;-3.936;2023-05-29T00:22:09;12.10;99.90
74384;DHT22;62824;52.994;-3.936;2023-05-29T00:24:35;12.10;99.90
74384;DHT22;62824;52.994;-3.936;2023-05-29T00:27:01;12.10;99.90
74384;DHT22;62824;52.994;-3.936;2023-05-29T00:29:27;12.00;99.90
74384;DHT22;62824;52.994;-3.936;2023-05-29T00:31:53;11.80;99.90
74384;DHT22;62824;52.994;-3.936;2023-05-29T00:34:21;11.80;99.90
74384;DHT22;62824;52.994;-3.936;2023-05-29T00:36:47;11.80;99.90
74384;DHT22;62824;52.994;-3.936;2023-05-29T00:39:13;11.80;99.90
74384;DHT22;62824;52.994;-3.936;2023-05-29T00:41:39;11.70;99.90
74384;DHT22;62824;52.994;-3.936;2023-05-29T00:44:05;11.90;99.90
74384;DHT22;62824;52.994;-3.936;2023-05-29T00:46:32;11.80;99.90
74384;DHT22;62824;52.994;-3.936;2023-05-29T00:49:01;11.80;99.90
74384;DHT22;62824;52.994;-3.936;2023-05-29T00:51:27;11.70;99.90
74384;DHT22;62824;52.994;-3.936;2023-05-29T00:53:54;11.70;99.90
74384;DHT22;62824;52.994;-3.936;2023-05-29T00:56:21;11.80;99.90
74384;DHT22;62824;52.994;-3.936;2023-05-29T00:58:49;11.80;99.90
74384;DHT22;62824;52.994;-3.936;2023-05-29T01:01:18;11.90;99.90
74384;DHT22;62824;52.994;-3.936;2023-05-29T01:03:45;11.90;99.90
74384;DHT22;62824;52.994;-3.936;2023-05-29T01:06:14;11.90;99.90
74384;DHT22;62824;52.994;-3.936;2023-05-29T01:08:40;12.00;99.90
74384;DHT22;62824;52.994;-3.936;2023-05-29T01:14:04;12.20;99.90
74384;DHT22;62824;52.994;-3.936;2023-05-29T01:16:38;12.30;99.90
74384;DHT22;62824;52.994;-3.936;2023-05-29T01:22:13;12.20;99.90
74384;DHT22;62824;52.994;-3.936;2023-05-29T01:24:58;12.20;99.90
74384;DHT22;62824;52.994;-3.936;2023-05-29T01:27:30;12.30;99.90
74384;DHT22;62824;52.994;-3.936;2023-05-29T01:29:58;12.10;99.90
74384;DHT22;62824;52.994;-3.936;2023-05-29T01:32:26;12.10;99.90
74384;DHT22;62824;52.994;-3.936;2023-05-29T01:34:52;12.10;99.90
74384;DHT22;62824;52.994;-3.936;2023-05-29T01:37:18;12.20;99.90
74384;DHT22;62824;52.994;-3.936;2023-05-29T01:39:44;12.10;99.90
74384;DHT22;62824;52.994;-3.936;2023-05-29T01:42:10;12.30;99.90
74384;DHT22;62824;52.994;-3.936;2023-05-29T01:44:37;12.30;99.10
74384;DHT22;62824;52.994;-3.936;2023-05-29T01:47:04;12.30;99.50
74384;DHT22;62824;52.994;-3.936;2023-05-29T01:49:31;12.40;99.70
74384;DHT22;62824;52.994;-3.936;2023-05-29T01:51:58;12.40;98.50
74384;DHT22;62824;52.994;-3.936;2023-05-29T01:54:24;12.40;98.00
74384;DHT22;62824;52.994;-3.936;2023-05-29T01:56:50;12.30;97.70
74384;DHT22;62824;52.994;-3.936;2023-05-29T01:59:16;12.40;97.10
74384;DHT22;62824;52.994;-3.936;2023-05-29T02:01:42;12.40;96.50
74384;DHT22;62824;52.994;-3.936;2023-05-29T02:04:08;12.20;97.50
74384;DHT22;62824;52.994;-3.936;2023-05-29T02:06:34;12.10;97.30
74384;DHT22;62824;52.994;-3.936;2023-05-29T02:09:00;12.10;97.50
74384;DHT22;62824;52.994;-3.936;2023-05-29T02:11:26;12.00;97.00
74384;DHT22;62824;52.994;-3.936;2023-05-29T02:13:52;11.70;98.00
74384;DHT22;62824;52.994;-3.936;2023-05-29T02:16:18;11.70;98.30
74384;DHT22;62824;52.994;-3.936;2023-05-29T02:18:46;11.70;97.50
74384;DHT22;62824;52.994;-3.936;2023-05-29T02:21:12;11.80;95.90
74384;DHT22;62824;52.994;-3.936;2023-05-29T02:23:38;11.80;95.20
74384;DHT22;62824;52.994;-3.936;2023-05-29T02:26:04;11.70;96.40
74384;DHT22;62824;52.994;-3.936;2023-05-29T02:28:30;11.60;97.10
74384;DHT22;62824;52.994;-3.936;2023-05-29T02:30:56;11.50;97.00
74384;DHT22;62824;52.994;-3.936;2023-05-29T02:33:22;11.40;98.10
74384;DHT22;62824;52.994;-3.936;2023-05-29T02:35:48;11.50;97.80
74384;DHT22;62824;52.994;-3.936;2023-05-29T02:38:14;11.60;96.60
74384;DHT22;62824;52.994;-3.936;2023-05-29T02:40:39;11.60;97.30
74384;DHT22;62824;52.994;-3.936;2023-05-29T02:43:06;11.50;96.30
74384;DHT22;62824;52.994;-3.936;2023-05-29T02:45:32;11.40;96.70
74384;DHT22;62824;52.994;-3.936;2023-05-29T02:47:58;11.50;95.90
74384;DHT22;62824;52.994;-3.936;2023-05-29T02:50:24;11.50;95.90
74384;DHT22;62824;52.994;-3.936;2023-05-29T02:52:50;11.60;94.20
74384;DHT22;62824;52.994;-3.936;2023-05-29T02:55:16;11.60;92.90
74384;DHT22;62824;52.994;-3.936;2023-05-29T02:57:42;11.60;92.60
74384;DHT22;62824;52.994;-3.936;2023-05-29T03:00:08;11.70;92.90
74384;DHT22;62824;52.994;-3.936;2023-05-29T03:02:34;11.40;93.10
74384;DHT22;62824;52.994;-3.936;2023-05-29T03:05:00;11.20;95.40
74384;DHT22;62824;52.994;-3.936;2023-05-29T03:07:26;11.10;96.20
74384;DHT22;62824;52.994;-3.936;2023-05-29T03:09:53;10.90;97.40
74384;DHT22;62824;52.994;-3.936;2023-05-29T03:12:19;11.10;99.30
74384;DHT22;62824;52.994;-3.936;2023-05-29T03:14:44;11.00;97.40
74384;DHT22;62824;52.994;-3.936;2023-05-29T03:17:10;10.90;97.30
74384;DHT22;62824;52.994;-3.936;2023-05-29T03:19:36;11.00;97.00
74384;DHT22;62824;52.994;-3.936;2023-05-29T03:22:04;11.10;95.70
74384;DHT22;62824;52.994;-3.936;2023-05-29T03:24:30;11.20;94.90
74384;DHT22;62824;52.994;-3.936;2023-05-29T03:26:55;11.20;94.00
74384;DHT22;62824;52.994;-3.936;2023-05-29T03:29:21;11.30;93.20
74384;DHT22;62824;52.994;-3.936;2023-05-29T03:31:47;11.30;92.80
74384;DHT22;62824;52.994;-3.936;2023-05-29T03:34:13;11.20;92.00
74384;DHT22;62824;52.994;-3.936;2023-05-29T03:36:39;11.20;91.70
74384;DHT22;62824;52.994;-3.936;2023-05-29T03:39:05;11.20;86.10
74384;DHT22;62824;52.994;-3.936;2023-05-29T03:41:32;11.10;87.20
74384;DHT22;62824;52.994;-3.936;2023-05-29T03:43:57;11.10;88.70
74384;DHT22;62824;52.994;-3.936;2023-05-29T03:46:23;11.00;84.50
74384;DHT22;62824;52.994;-3.936;2023-05-29T03:48:49;11.10;85.90
74384;DHT22;62824;52.994;-3.936;2023-05-29T03:51:14;11.10;83.60
74384;DHT22;62824;52.994;-3.936;2023-05-29T03:53:40;11.10;85.80
74384;DHT22;62824;52.994;-3.936;2023-05-29T03:56:06;11.10;85.50
74384;DHT22;62824;52.994;-3.936;2023-05-29T03:58:32;10.70;91.90
74384;DHT22;62824;52.994;-3.936;2023-05-29T04:00:58;10.50;93.70
74384;DHT22;62824;52.994;-3.936;2023-05-29T04:03:24;10.40;94.70
74384;DHT22;62824;52.994;-3.936;2023-05-29T04:05:50;10.30;96.30
74384;DHT22;62824;52.994;-3.936;2023-05-29T04:08:15;10.20;97.40
74384;DHT22;62824;52.994;-3.936;2023-05-29T04:10:41;10.20;97.40
74384;DHT22;62824;52.994;-3.936;2023-05-29T04:13:07;10.20;96.50
74384;DHT22;62824;52.994;-3.936;2023-05-29T04:15:33;10.20;95.30
74384;DHT22;62824;52.994;-3.936;2023-05-29T04:17:59;10.10;96.20
74384;DHT22;62824;52.994;-3.936;2023-05-29T04:20:25;10.00;97.00
74384;DHT22;62824;52.994;-3.936;2023-05-29T04:22:51;10.00;97.70
74384;DHT22;62824;52.994;-3.936;2023-05-29T04:25:17;10.00;98.00
74384;DHT22;62824;52.994;-3.936;2023-05-29T04:27:44;9.90;99.00
74384;DHT22;62824;52.994;-3.936;2023-05-29T04:30:15;9.80;99.90
74384;DHT22;62824;52.994;-3.936;2023-05-29T04:32:41;9.80;99.90
74384;DHT22;62824;52.994;-3.936;2023-05-29T04:35:07;10.00;99.90
74384;DHT22;62824;52.994;-3.936;2023-05-29T04:37:33;10.10;99.90
74384;DHT22;62824;52.994;-3.936;2023-05-29T04:40:08;10.30;99.90
74384;DHT22;62824;52.994;-3.936;2023-05-29T04:42:37;10.40;99.90
74384;DHT22;62824;52.994;-3.936;2023-05-29T04:45:04;10.20;99.90
74384;DHT22;62824;52.994;-3.936;2023-05-29T04:47:30;10.00;99.90
74384;DHT22;62824;52.994;-3.936;2023-05-29T04:49:59;9.90;99.90
74384;DHT22;62824;52.994;-3.936;2023-05-29T04:52:25;9.90;99.90
74384;DHT22;62824;52.994;-3.936;2023-05-29T04:54:51;9.90;99.90
74384;DHT22;62824;52.994;-3.936;2023-05-29T04:57:17;10.00;99.90
74384;DHT22;62824;52.994;-3.936;2023-05-29T04:59:43;10.30;99.90
74384;DHT22;62824;52.994;-3.936;2023-05-29T05:02:09;10.30;99.90
74384;DHT22;62824;52.994;-3.936;2023-05-29T05:04:35;10.50;99.90
74384;DHT22;62824;52.994;-3.936;2023-05-29T05:07:01;10.60;97.10
74384;DHT22;62824;52.994;-3.936;2023-05-29T05:09:27;10.60;96.00
74384;DHT22;62824;52.994;-3.936;2023-05-29T05:11:53;10.70;94.90
74384;DHT22;62824;52.994;-3.936;2023-05-29T05:14:19;10.80;92.70
74384;DHT22;62824;52.994;-3.936;2023-05-29T05:16:45;10.80;92.70
74384;DHT22;62824;52.994;-3.936;2023-05-29T05:19:10;10.80;91.10
74384;DHT22;62824;52.994;-3.936;2023-05-29T05:21:36;10.80;86.30
74384;DHT22;62824;52.994;-3.936;2023-05-29T05:24:02;10.90;83.60
74384;DHT22;62824;52.994;-3.936;2023-05-29T05:26:28;10.70;86.70
74384;DHT22;62824;52.994;-3.936;2023-05-29T05:28:54;10.70;86.30
74384;DHT22;62824;52.994;-3.936;2023-05-29T05:31:19;10.70;83.30
74384;DHT22;62824;52.994;-3.936;2023-05-29T05:33:45;10.80;81.60
74384;DHT22;62824;52.994;-3.936;2023-05-29T05:36:11;10.80;80.20
74384;DHT22;62824;52.994;-3.936;2023-05-29T05:38:37;10.80;81.90
74384;DHT22;62824;52.994;-3.936;2023-05-29T05:41:02;10.90;79.70
74384;DHT22;62824;52.994;-3.936;2023-05-29T05:43:28;10.90;85.10
74384;DHT22;62824;52.994;-3.936;2023-05-29T05:45:55;10.90;89.50
74384;DHT22;62824;52.994;-3.936;2023-05-29T05:48:21;11.00;80.10
74384;DHT22;62824;52.994;-3.936;2023-05-29T05:50:46;11.10;78.10
74384;DHT22;62824;52.994;-3.936;2023-05-29T05:53:12;11.20;79.50
74384;DHT22;62824;52.994;-3.936;2023-05-29T05:55:38;11.20;82.20
74384;DHT22;62824;52.994;-3.936;2023-05-29T05:58:04;11.30;82.50
74384;DHT22;62824;52.994;-3.936;2023-05-29T06:00:29;11.20;85.10
74384;DHT22;62824;52.994;-3.936;2023-05-29T06:02:55;11.20;82.70
74384;DHT22;62824;52.994;-3.936;2023-05-29T06:05:21;11.20;85.30
74384;DHT22;62824;52.994;-3.936;2023-05-29T06:07:47;11.30;79.90
74384;DHT22;62824;52.994;-3.936;2023-05-29T06:10:13;11.30;76.90
74384;DHT22;62824;52.994;-3.936;2023-05-29T06:12:38;11.30;80.40
74384;DHT22;62824;52.994;-3.936;2023-05-29T06:15:05;11.40;80.50
74384;DHT22;62824;52.994;-3.936;2023-05-29T06:17:31;11.30;82.80
74384;DHT22;62824;52.994;-3.936;2023-05-29T06:19:57;11.30;85.90
74384;DHT22;62824;52.994;-3.936;2023-05-29T06:22:22;11.30;86.10
74384;DHT22;62824;52.994;-3.936;2023-05-29T06:24:48;11.40;88.00
74384;DHT22;62824;52.994;-3.936;2023-05-29T06:27:14;11.50;75.00
74384;DHT22;62824;52.994;-3.936;2023-05-29T06:29:40;11.70;79.20
74384;DHT22;62824;52.994;-3.936;2023-05-29T06:32:06;11.70;79.90
74384;DHT22;62824;52.994;-3.936;2023-05-29T06:34:32;11.90;68.00
74384;DHT22;62824;52.994;-3.936;2023-05-29T06:36:57;12.20;74.50
74384;DHT22;62824;52.994;-3.936;2023-05-29T06:39:23;12.50;57.00
74384;DHT22;62824;52.994;-3.936;2023-05-29T06:41:49;12.80;51.20
74384;DHT22;62824;52.994;-3.936;2023-05-29T06:44:15;12.70;62.70
74384;DHT22;62824;52.994;-3.936;2023-05-29T06:46:40;13.00;49.90
74384;DHT22;62824;52.994;-3.936;2023-05-29T06:49:06;13.20;43.70
74384;DHT22;62824;52.994;-3.936;2023-05-29T06:51:33;13.30;42.20
74384;DHT22;62824;52.994;-3.936;2023-05-29T06:53:59;13.20;44.50
74384;DHT22;62824;52.994;-3.936;2023-05-29T06:56:25;13.20;43.20
74384;DHT22;62824;52.994;-3.936;2023-05-29T06:58:51;12.70;49.70
74384;DHT22;62824;52.994;-3.936;2023-05-29T07:01:17;12.70;57.80
74384;DHT22;62824;52.994;-3.936;2023-05-29T07:03:43;12.50;58.60
74384;DHT22;62824;52.994;-3.936;2023-05-29T07:06:09;12.50;62.60
74384;DHT22;62824;52.994;-3.936;2023-05-29T07:08:35;12.40;64.60
74384;DHT22;62824;52.994;-3.936;2023-05-29T07:11:01;12.40;67.60
74384;DHT22;62824;52.994;-3.936;2023-05-29T07:13:27;12.60;66.50
74384;DHT22;62824;52.994;-3.936;2023-05-29T07:15:53;12.50;69.70
74384;DHT22;62824;52.994;-3.936;2023-05-29T07:18:19;12.50;71.90
74384;DHT22;62824;52.994;-3.936;2023-05-29T07:20:44;12.70;68.10
74384;DHT22;62824;52.994;-3.936;2023-05-29T07:23:10;12.90;66.80
74384;DHT22;62824;52.994;-3.936;2023-05-29T07:25:36;13.10;59.10
74384;DHT22;62824;52.994;-3.936;2023-05-29T07:28:02;13.00;50.90
74384;DHT22;62824;52.994;-3.936;2023-05-29T07:30:27;13.00;55.10
74384;DHT22;62824;52.994;-3.936;2023-05-29T07:32:53;13.00;51.50
74384;DHT22;62824;52.994;-3.936;2023-05-29T07:35:19;13.20;44.00
74384;DHT22;62824;52.994;-3.936;2023-05-29T07:37:45;13.10;43.50
74384;DHT22;62824;52.994;-3.936;2023-05-29T07:40:10;13.20;41.90
74384;DHT22;62824;52.994;-3.936;2023-05-29T07:42:37;13.20;42.10
74384;DHT22;62824;52.994;-3.936;2023-05-29T07:45:03;13.30;43.70
74384;DHT22;62824;52.994;-3.936;2023-05-29T07:47:28;13.30;45.90
74384;DHT22;62824;52.994;-3.936;2023-05-29T07:49:54;13.20;44.70
74384;DHT22;62824;52.994;-3.936;2023-05-29T07:52:20;13.20;47.20
74384;DHT22;62824;52.994;-3.936;2023-05-29T07:54:46;13.30;43.90
74384;DHT22;62824;52.994;-3.936;2023-05-29T07:57:11;13.40;42.70
74384;DHT22;62824;52.994;-3.936;2023-05-29T07:59:39;13.60;38.30
74384;DHT22;62824;52.994;-3.936;2023-05-29T08:02:07;13.70;40.20
74384;DHT22;62824;52.994;-3.936;2023-05-29T08:04:35;13.70;37.50
74384;DHT22;62824;52.994;-3.936;2023-05-29T08:07:01;13.90;34.00
74384;DHT22;62824;52.994;-3.936;2023-05-29T08:09:29;14.00;30.90
74384;DHT22;62824;52.994;-3.936;2023-05-29T08:11:55;14.20;28.90
74384;DHT22;62824;52.994;-3.936;2023-05-29T08:14:21;14.20;28.90
74384;DHT22;62824;52.994;-3.936;2023-05-29T08:16:47;14.20;28.00
74384;DHT22;62824;52.994;-3.936;2023-05-29T08:19:13;14.20;28.40
74384;DHT22;62824;52.994;-3.936;2023-05-29T08:21:38;14.30;28.40
74384;DHT22;62824;52.994;-3.936;2023-05-29T08:24:05;14.50;27.40
74384;DHT22;62824;52.994;-3.936;2023-05-29T08:26:31;14.70;27.50
74384;DHT22;62824;52.994;-3.936;2023-05-29T08:28:57;14.60;28.50
74384;DHT22;62824;52.994;-3.936;2023-05-29T08:31:23;14.70;28.10
74384;DHT22;62824;52.994;-3.936;2023-05-29T08:33:52;14.80;27.20
74384;DHT22;62824;52.994;-3.936;2023-05-29T08:36:18;14.90;27.50
74384;DHT22;62824;52.994;-3.936;2023-05-29T08:38:47;14.90;26.60
74384;DHT22;62824;52.994;-3.936;2023-05-29T08:41:21;14.80;27.10
74384;DHT22;62824;52.994;-3.936;2023-05-29T08:43:48;14.80;27.70
74384;DHT22;62824;52.994;-3.936;2023-05-29T08:46:18;15.00;26.60
74384;DHT22;62824;52.994;-3.936;2023-05-29T08:48:48;14.90;26.90
74384;DHT22;62824;52.994;-3.936;2023-05-29T08:51:19;15.30;26.70
74384;DHT22;62824;52.994;-3.936;2023-05-29T08:53:46;15.50;25.20
74384;DHT22;62824;52.994;-3.936;2023-05-29T08:56:12;15.40;25.20
74384;DHT22;62824;52.994;-3.936;2023-05-29T08:58:38;15.30;25.00
74384;DHT22;62824;52.994;-3.936;2023-05-29T09:01:04;15.40;24.40
74384;DHT22;62824;52.994;-3.936;2023-05-29T09:03:30;15.20;25.40
74384;DHT22;62824;52.994;-3.936;2023-05-29T09:05:59;14.90;25.80
74384;DHT22;62824;52.994;-3.936;2023-05-29T09:08:25;14.90;25.10
74384;DHT22;62824;52.994;-3.936;2023-05-29T09:10:52;15.30;24.70
74384;DHT22;62824;52.994;-3.936;2023-05-29T09:13:18;15.40;23.30
74384;DHT22;62824;52.994;-3.936;2023-05-29T09:15:44;15.50;23.40
74384;DHT22;62824;52.994;-3.936;2023-05-29T09:18:10;15.60;23.00
74384;DHT22;62824;52.994;-3.936;2023-05-29T09:20:36;15.70;23.10
74384;DHT22;62824;52.994;-3.936;2023-05-29T09:23:04;15.70;22.90
74384;DHT22;62824;52.994;-3.936;2023-05-29T09:25:33;15.70;22.30
74384;DHT22;62824;52.994;-3.936;2023-05-29T09:28:00;15.90;22.50
74384;DHT22;62824;52.994;-3.936;2023-05-29T09:30:46;15.70;22.40
74384;DHT22;62824;52.994;-3.936;2023-05-29T09:33:14;15.50;22.40
74384;DHT22;62824;52.994;-3.936;2023-05-29T09:35:44;15.70;22.90
74384;DHT22;62824;52.994;-3.936;2023-05-29T09:38:12;15.90;22.20
74384;DHT22;62824;52.994;-3.936;2023-05-29T09:40:39;15.90;22.30
74384;DHT22;62824;52.994;-3.936;2023-05-29T09:43:15;16.20;21.20
74384;DHT22;62824;52.994;-3.936;2023-05-29T09:45:47;16.30;21.00
74384;DHT22;62824;52.994;-3.936;2023-05-29T09:48:14;15.80;21.30
74384;DHT22;62824;52.994;-3.936;2023-05-29T09:50:40;16.00;22.20
74384;DHT22;62824;52.994;-3.936;2023-05-29T09:53:23;16.30;21.50
74384;DHT22;62824;52.994;-3.936;2023-05-29T09:55:53;16.40;21.00
74384;DHT22;62824;52.994;-3.936;2023-05-29T09:58:21;16.60;20.60
74384;DHT22;62824;52.994;-3.936;2023-05-29T10:00:47;16.60;20.30
74384;DHT22;62824;52.994;-3.936;2023-05-29T10:03:14;16.20;20.70
74384;DHT22;62824;52.994;-3.936;2023-05-29T10:05:41;16.10;21.70
74384;DHT22;62824;52.994;-3.936;2023-05-29T10:08:12;16.60;20.80
74384;DHT22;62824;52.994;-3.936;2023-05-29T10:10:45;16.40;20.50
74384;DHT22;62824;52.994;-3.936;2023-05-29T10:13:13;16.80;20.40
74384;DHT22;62824;52.994;-3.936;2023-05-29T10:15:45;16.50;20.70
74384;DHT22;62824;52.994;-3.936;2023-05-29T10:18:21;16.80;20.00
74384;DHT22;62824;52.994;-3.936;2023-05-29T10:20:51;17.50;18.70
74384;DHT22;62824;52.994;-3.936;2023-05-29T10:23:21;17.50;18.60
74384;DHT22;62824;52.994;-3.936;2023-05-29T10:25:52;17.50;18.60
74384;DHT22;62824;52.994;-3.936;2023-05-29T10:28:19;17.50;18.40
74384;DHT22;62824;52.994;-3.936;2023-05-29T10:31:08;17.50;18.00
74384;DHT22;62824;52.994;-3.936;2023-05-29T10:36:22;18.00;17.10
74384;DHT22;62824;52.994;-3.936;2023-05-29T10:38:52;17.90;16.40
74384;DHT22;62824;52.994;-3.936;2023-05-29T10:43:57;18.20;15.20
74384;DHT22;62824;52.994;-3.936;2023-05-29T10:49:21;17.90;14.90
74384;DHT22;62824;52.994;-3.936;2023-05-29T10:51:48;18.10;15.20
74384;DHT22;62824;52.994;-3.936;2023-05-29T10:54:14;18.20;13.90
74384;DHT22;62824;52.994;-3.936;2023-05-29T10:56:44;18.30;14.30
74384;DHT22;62824;52.994;-3.936;2023-05-29T10:59:10;18.20;13.40
74384;DHT22;62824;52.994;-3.936;2023-05-29T11:01:39;18.20;13.90
74384;DHT22;62824;52.994;-3.936;2023-05-29T11:06:46;18.40;14.90
74384;DHT22;62824;52.994;-3.936;2023-05-29T11:09:44;18.70;13.20
74384;DHT22;62824;52.994;-3.936;2023-05-29T11:12:23;18.80;13.80
74384;DHT22;62824;52.994;-3.936;2023-05-29T11:15:08;19.10;14.00
74384;DHT22;62824;52.994;-3.936;2023-05-29T11:20:33;19.10;13.30
74384;DHT22;62824;52.994;-3.936;2023-05-29T11:23:03;19.20;12.30
74384;DHT22;62824;52.994;-3.936;2023-05-29T11:25:34;19.00;13.60
74384;DHT22;62824;52.994;-3.936;2023-05-29T11:28:01;19.20;13.60
74384;DHT22;62824;52.994;-3.936;2023-05-29T11:30:29;19.10;13.30
74384;DHT22;62824;52.994;-3.936;2023-05-29T11:33:01;19.30;12.70
74384;DHT22;62824;52.994;-3.936;2023-05-29T11:35:32;19.80;11.60
74384;DHT22;62824;52.994;-3.936;2023-05-29T11:38:01;20.10;12.10
74384;DHT22;62824;52.994;-3.936;2023-05-29T11:40:27;20.60;11.30
74384;DHT22;62824;52.994;-3.936;2023-05-29T11:42:52;20.20;10.60
74384;DHT22;62824;52.994;-3.936;2023-05-29T11:45:20;20.50;10.20
74384;DHT22;62824;52.994;-3.936;2023-05-29T11:47:58;20.50;10.20
74384;DHT22;62824;52.994;-3.936;2023-05-29T11:50:27;20.60;9.70
74384;DHT22;62824;52.994;-3.936;2023-05-29T11:52:53;20.70;9.30
74384;DHT22;62824;52.994;-3.936;2023-05-29T11:55:20;20.80;9.00
74384;DHT22;62824;52.994;-3.936;2023-05-29T11:57:51;20.50;10.20
74384;DHT22;62824;52.994;-3.936;2023-05-29T12:00:18;20.50;10.00
74384;DHT22;62824;52.994;-3.936;2023-05-29T12:02:45;20.80;9.10
74384;DHT22;62824;52.994;-3.936;2023-05-29T12:05:16;21.40;8.30
74384;DHT22;62824;52.994;-3.936;2023-05-29T12:07:54;21.00;8.90
74384;DHT22;62824;52.994;-3.936;2023-05-29T12:10:22;21.10;8.80
74384;DHT22;62824;52.994;-3.936;2023-05-29T12:12:53;21.20;9.20
74384;DHT22;62824;52.994;-3.936;2023-05-29T12:15:19;21.40;8.30
74384;DHT22;62824;52.994;-3.936;2023-05-29T12:17:48;21.00;8.60
74384;DHT22;62824;52.994;-3.936;2023-05-29T12:20:14;20.80;9.30
74384;DHT22;62824;52.994;-3.936;2023-05-29T12:22:41;21.00;9.60
74384;DHT22;62824;52.994;-3.936;2023-05-29T12:25:15;21.30;8.50
74384;DHT22;62824;52.994;-3.936;2023-05-29T12:27:43;20.90;9.10
74384;DHT22;62824;52.994;-3.936;2023-05-29T12:30:21;20.80;9.10
74384;DHT22;62824;52.994;-3.936;2023-05-29T12:32:49;20.90;9.20
74384;DHT22;62824;52.994;-3.936;2023-05-29T12:40:14;21.00;9.00
74384;DHT22;62824;52.994;-3.936;2023-05-29T12:42:40;21.30;8.70
74384;DHT22;62824;52.994;-3.936;2023-05-29T12:45:07;20.80;8.80
74384;DHT22;62824;52.994;-3.936;2023-05-29T12:47:33;20.40;9.60
74384;DHT22;62824;52.994;-3.936;2023-05-29T12:50:08;20.60;9.50
74384;DHT22;62824;52.994;-3.936;2023-05-29T12:52:40;20.50;10.20
74384;DHT22;62824;52.994;-3.936;2023-05-29T12:55:06;21.20;9.50
74384;DHT22;62824;52.994;-3.936;2023-05-29T12:57:33;21.00;8.50
74384;DHT22;62824;52.994;-3.936;2023-05-29T12:59:58;21.30;8.70
74384;DHT22;62824;52.994;-3.936;2023-05-29T13:02:24;21.50;8.40
74384;DHT22;62824;52.994;-3.936;2023-05-29T13:04:50;21.50;8.10
74384;DHT22;62824;52.994;-3.936;2023-05-29T13:07:16;21.70;8.40
74384;DHT22;62824;52.994;-3.936;2023-05-29T13:09:41;21.70;7.70
74384;DHT22;62824;52.994;-3.936;2023-05-29T13:12:07;22.00;8.10
74384;DHT22;62824;52.994;-3.936;2023-05-29T13:14:33;21.90;8.00
74384;DHT22;62824;52.994;-3.936;2023-05-29T13:16:59;21.90;8.20
74384;DHT22;62824;52.994;-3.936;2023-05-29T13:19:25;22.00;7.90
74384;DHT22;62824;52.994;-3.936;2023-05-29T13:21:50;22.20;7.40
74384;DHT22;62824;52.994;-3.936;2023-05-29T13:24:17;22.10;7.70
74384;DHT22;62824;52.994;-3.936;2023-05-29T13:26:45;22.10;7.50
74384;DHT22;62824;52.994;-3.936;2023-05-29T13:29:11;22.10;7.20
74384;DHT22;62824;52.994;-3.936;2023-05-29T13:31:36;22.10;7.80
74384;DHT22;62824;52.994;-3.936;2023-05-29T13:34:02;22.10;7.20
74384;DHT22;62824;52.994;-3.936;2023-05-29T13:36:28;21.80;7.40
74384;DHT22;62824;52.994;-3.936;2023-05-29T13:38:54;21.90;7.40
74384;DHT22;62824;52.994;-3.936;2023-05-29T13:41:19;21.70;7.00
74384;DHT22;62824;52.994;-3.936;2023-05-29T13:43:46;21.90;7.00
74384;DHT22;62824;52.994;-3.936;2023-05-29T13:46:12;22.30;6.30
74384;DHT22;62824;52.994;-3.936;2023-05-29T13:48:38;22.30;5.80
74384;DHT22;62824;52.994;-3.936;2023-05-29T13:51:04;22.60;6.40
74384;DHT22;62824;52.994;-3.936;2023-05-29T13:53:30;22.60;6.30
74384;DHT22;62824;52.994;-3.936;2023-05-29T13:55:55;22.80;6.40
74384;DHT22;62824;52.994;-3.936;2023-05-29T13:58:21;22.50;6.40
74384;DHT22;62824;52.994;-3.936;2023-05-29T14:00:47;22.50;7.00
74384;DHT22;62824;52.994;-3.936;2023-05-29T14:03:13;22.80;6.10
74384;DHT22;62824;52.994;-3.936;2023-05-29T14:05:42;22.40;5.50
74384;DHT22;62824;52.994;-3.936;2023-05-29T14:08:07;22.20;6.00
74384;DHT22;62824;52.994;-3.936;2023-05-29T14:10:33;22.10;6.30
74384;DHT22;62824;52.994;-3.936;2023-05-29T14:12:59;22.30;6.30
74384;DHT22;62824;52.994;-3.936;2023-05-29T14:15:25;22.50;5.70
74384;DHT22;62824;52.994;-3.936;2023-05-29T14:17:50;22.90;6.50
74384;DHT22;62824;52.994;-3.936;2023-05-29T14:20:16;23.00;6.00
74384;DHT22;62824;52.994;-3.936;2023-05-29T14:22:42;22.50;7.00
74384;DHT22;62824;52.994;-3.936;2023-05-29T14:25:08;22.40;6.60
74384;DHT22;62824;52.994;-3.936;2023-05-29T14:27:34;22.60;6.80
74384;DHT22;62824;52.994;-3.936;2023-05-29T14:30:00;22.40;6.60
74384;DHT22;62824;52.994;-3.936;2023-05-29T14:32:25;22.10;6.90
74384;DHT22;62824;52.994;-3.936;2023-05-29T14:34:51;22.30;7.10
74384;DHT22;62824;52.994;-3.936;2023-05-29T14:37:18;22.40;6.40
74384;DHT22;62824;52.994;-3.936;2023-05-29T14:39:43;22.10;6.90
74384;DHT22;62824;52.994;-3.936;2023-05-29T14:42:09;22.40;6.40
74384;DHT22;62824;52.994;-3.936;2023-05-29T14:44:35;22.30;6.10
74384;DHT22;62824;52.994;-3.936;2023-05-29T14:47:01;22.00;6.40
74384;DHT22;62824;52.994;-3.936;2023-05-29T14:49:26;22.10;6.10
74384;DHT22;62824;52.994;-3.936;2023-05-29T14:51:57;22.10;6.40
74384;DHT22;62824;52.994;-3.936;2023-05-29T14:54:23;22.20;6.10
74384;DHT22;62824;52.994;-3.936;2023-05-29T14:56:48;22.70;6.30
74384;DHT22;62824;52.994;-3.936;2023-05-29T14:59:14;23.00;5.70
74384;DHT22;62824;52.994;-3.936;2023-05-29T15:01:40;23.20;5.40
74384;DHT22;62824;52.994;-3.936;2023-05-29T15:04:06;22.40;6.20
74384;DHT22;62824;52.994;-3.936;2023-05-29T15:06:32;22.10;6.80
74384;DHT22;62824;52.994;-3.936;2023-05-29T15:08:58;22.50;6.60
74384;DHT22;62824;52.994;-3.936;2023-05-29T15:11:28;22.30;6.50
74384;DHT22;62824;52.994;-3.936;2023-05-29T15:13:54;22.60;6.70
74384;DHT22;62824;52.994;-3.936;2023-05-29T15:16:20;22.60;6.20
74384;DHT22;62824;52.994;-3.936;2023-05-29T15:18:46;22.00;6.80
74384;DHT22;62824;52.994;-3.936;2023-05-29T15:21:12;21.80;7.40
74384;DHT22;62824;52.994;-3.936;2023-05-29T15:23:38;22.00;7.10
74384;DHT22;62824;52.994;-3.936;2023-05-29T15:26:09;21.90;6.80
74384;DHT22;62824;52.994;-3.936;2023-05-29T15:28:35;21.60;7.60
74384;DHT22;62824;52.994;-3.936;2023-05-29T15:31:01;21.70;7.30
74384;DHT22;62824;52.994;-3.936;2023-05-29T15:33:27;21.50;6.00
74384;DHT22;62824;52.994;-3.936;2023-05-29T15:35:53;21.40;7.00
74384;DHT22;62824;52.994;-3.936;2023-05-29T15:38:19;21.00;7.50
74384;DHT22;62824;52.994;-3.936;2023-05-29T15:40:45;21.00;8.10
74384;DHT22;62824;52.994;-3.936;2023-05-29T15:43:11;21.20;8.10